sensor_id;sensor_type;location;lat;lon;timestamp;P1;durP1;ratioP1;P2;durP2;ratioP2
59649;SDS011;46162;57.568;25.814;2022-12-15T00:00:00;15.23;;;8.77;;
59649;SDS011;46162;57.568;25.814;2022-12-15T00:02:46;17.35;;;8.90;;
59649;SDS011;46162;57.568;25.814;2022-12-15T00:05:33;15.75;;;8.50;;
59649;SDS011;46162;57.568;25.814;2022-12-15T00:08:20;16.55;;;8.73;;
59649;SDS011;46162;57.568;25.814;2022-12-15T00:11:06;15.65;;;8.52;;
59649;SDS011;46162;57.568;25.814;2022-12-15T00:13:52;18.90;;;9.75;;
59649;SDS011;46162;57.568;25.814;2022-12-15T00:16:38;17.70;;;9.27;;
59649;SDS011;46162;57.568;25.814;2022-12-15T00:19:23;19.35;;;10.60;;
59649;SDS011;46162;57.568;25.814;2022-12-15T00:22:10;15.20;;;9.18;;
59649;SDS011;46162;57.568;25.814;2022-12-15T00:24:57;18.55;;;10.23;;
59649;SDS011;46162;57.568;25.814;2022-12-15T00:27:42;16.98;;;9.00;;
59649;SDS011;46162;57.568;25.814;2022-12-15T00:30:28;17.60;;;9.80;;
59649;SDS011;46162;57.568;25.814;2022-12-15T00:33:15;18.20;;;10.07;;
59649;SDS011;46162;57.568;25.814;2022-12-15T00:36:01;18.35;;;10.32;;
59649;SDS011;46162;57.568;25.814;2022-12-15T00:38:48;16.85;;;10.02;;
59649;SDS011;46162;57.568;25.814;2022-12-15T00:41:17;18.48;;;10.60;;
59649;SDS011;46162;57.568;25.814;2022-12-15T00:43:46;20.20;;;11.00;;
59649;SDS011;46162;57.568;25.814;2022-12-15T00:46:15;20.02;;;10.73;;
59649;SDS011;46162;57.568;25.814;2022-12-15T00:49:01;19.65;;;11.20;;
59649;SDS011;46162;57.568;25.814;2022-12-15T00:51:50;18.40;;;9.75;;
59649;SDS011;46162;57.568;25.814;2022-12-15T00:54:38;19.67;;;11.52;;
59649;SDS011;46162;57.568;25.814;2022-12-15T00:57:24;22.00;;;11.00;;
59649;SDS011;46162;57.568;25.814;2022-12-15T01:00:10;17.83;;;9.52;;
59649;SDS011;46162;57.568;25.814;2022-12-15T01:02:57;19.88;;;11.45;;
59649;SDS011;46162;57.568;25.814;2022-12-15T01:05:43;20.42;;;10.63;;
59649;SDS011;46162;57.568;25.814;2022-12-15T01:08:29;23.02;;;11.73;;
59649;SDS011;46162;57.568;25.814;2022-12-15T01:11:16;18.48;;;10.73;;
59649;SDS011;46162;57.568;25.814;2022-12-15T01:14:02;18.75;;;11.73;;
59649;SDS011;46162;57.568;25.814;2022-12-15T01:16:47;22.35;;;10.93;;
59649;SDS011;46162;57.568;25.814;2022-12-15T01:19:34;20.67;;;11.45;;
59649;SDS011;46162;57.568;25.814;2022-12-15T01:22:20;21.10;;;11.93;;
59649;SDS011;46162;57.568;25.814;2022-12-15T01:24:49;22.70;;;12.60;;
59649;SDS011;46162;57.568;25.814;2022-12-15T01:27:19;20.50;;;11.73;;
59649;SDS011;46162;57.568;25.814;2022-12-15T01:29:47;19.75;;;12.27;;
59649;SDS011;46162;57.568;25.814;2022-12-15T01:32:16;20.85;;;12.63;;
59649;SDS011;46162;57.568;25.814;2022-12-15T01:34:44;21.40;;;12.45;;
59649;SDS011;46162;57.568;25.814;2022-12-15T01:37:13;22.27;;;11.90;;
59649;SDS011;46162;57.568;25.814;2022-12-15T01:39:41;22.15;;;13.88;;
59649;SDS011;46162;57.568;25.814;2022-12-15T01:42:29;21.90;;;13.05;;
59649;SDS011;46162;57.568;25.814;2022-12-15T01:47:59;21.95;;;12.70;;
59649;SDS011;46162;57.568;25.814;2022-12-15T01:50:32;20.88;;;12.38;;
59649;SDS011;46162;57.568;25.814;2022-12-15T01:53:05;23.02;;;13.07;;
59649;SDS011;46162;57.568;25.814;2022-12-15T01:55:34;23.13;;;14.10;;
59649;SDS011;46162;57.568;25.814;2022-12-15T01:58:05;21.25;;;12.50;;
59649;SDS011;46162;57.568;25.814;2022-12-15T02:00:37;22.80;;;12.45;;
59649;SDS011;46162;57.568;25.814;2022-12-15T02:03:05;22.70;;;12.68;;
59649;SDS011;46162;57.568;25.814;2022-12-15T02:05:35;21.05;;;13.00;;
59649;SDS011;46162;57.568;25.814;2022-12-15T02:08:05;20.02;;;12.73;;
59649;SDS011;46162;57.568;25.814;2022-12-15T02:13:30;21.08;;;13.05;;
59649;SDS011;46162;57.568;25.814;2022-12-15T02:16:08;19.90;;;12.45;;
59649;SDS011;46162;57.568;25.814;2022-12-15T02:18:48;19.45;;;11.27;;
59649;SDS011;46162;57.568;25.814;2022-12-15T02:21:26;18.88;;;11.27;;
59649;SDS011;46162;57.568;25.814;2022-12-15T02:24:05;18.48;;;11.27;;
59649;SDS011;46162;57.568;25.814;2022-12-15T02:27:15;18.65;;;11.07;;
59649;SDS011;46162;57.568;25.814;2022-12-15T02:32:47;20.10;;;11.70;;
59649;SDS011;46162;57.568;25.814;2022-12-15T02:35:23;19.33;;;10.80;;
59649;SDS011;46162;57.568;25.814;2022-12-15T02:37:58;18.63;;;11.57;;
59649;SDS011;46162;57.568;25.814;2022-12-15T02:40:27;18.90;;;10.30;;
59649;SDS011;46162;57.568;25.814;2022-12-15T02:42:56;17.23;;;10.70;;
59649;SDS011;46162;57.568;25.814;2022-12-15T02:45:33;17.98;;;10.63;;
59649;SDS011;46162;57.568;25.814;2022-12-15T02:48:10;18.45;;;10.98;;
59649;SDS011;46162;57.568;25.814;2022-12-15T02:50:50;19.55;;;10.15;;
59649;SDS011;46162;57.568;25.814;2022-12-15T02:59:06;16.48;;;8.80;;
59649;SDS011;46162;57.568;25.814;2022-12-15T03:01:39;17.48;;;9.57;;
59649;SDS011;46162;57.568;25.814;2022-12-15T03:04:15;18.63;;;10.02;;
59649;SDS011;46162;57.568;25.814;2022-12-15T03:06:45;17.23;;;9.13;;
59649;SDS011;46162;57.568;25.814;2022-12-15T03:09:26;15.60;;;9.40;;
59649;SDS011;46162;57.568;25.814;2022-12-15T03:11:55;18.35;;;9.90;;
59649;SDS011;46162;57.568;25.814;2022-12-15T03:14:23;13.82;;;8.88;;
59649;SDS011;46162;57.568;25.814;2022-12-15T03:16:54;15.80;;;8.80;;
59649;SDS011;46162;57.568;25.814;2022-12-15T03:19:23;16.80;;;9.25;;
59649;SDS011;46162;57.568;25.814;2022-12-15T03:21:52;15.98;;;9.43;;
59649;SDS011;46162;57.568;25.814;2022-12-15T03:24:20;15.02;;;8.73;;
59649;SDS011;46162;57.568;25.814;2022-12-15T03:26:49;17.20;;;9.35;;
59649;SDS011;46162;57.568;25.814;2022-12-15T03:29:17;14.95;;;9.18;;
59649;SDS011;46162;57.568;25.814;2022-12-15T03:31:46;16.40;;;9.32;;
59649;SDS011;46162;57.568;25.814;2022-12-15T03:34:17;16.15;;;8.88;;
59649;SDS011;46162;57.568;25.814;2022-12-15T03:36:45;14.88;;;8.27;;
59649;SDS011;46162;57.568;25.814;2022-12-15T03:39:14;13.98;;;8.20;;
59649;SDS011;46162;57.568;25.814;2022-12-15T03:41:42;13.65;;;7.88;;
59649;SDS011;46162;57.568;25.814;2022-12-15T03:44:11;13.35;;;7.38;;
59649;SDS011;46162;57.568;25.814;2022-12-15T03:46:40;11.73;;;6.85;;
59649;SDS011;46162;57.568;25.814;2022-12-15T03:49:08;12.85;;;7.57;;
59649;SDS011;46162;57.568;25.814;2022-12-15T03:51:38;13.18;;;8.13;;
59649;SDS011;46162;57.568;25.814;2022-12-15T03:54:07;13.23;;;7.57;;
59649;SDS011;46162;57.568;25.814;2022-12-15T03:56:35;12.32;;;6.70;;
59649;SDS011;46162;57.568;25.814;2022-12-15T03:59:04;15.38;;;7.65;;
59649;SDS011;46162;57.568;25.814;2022-12-15T04:01:33;11.40;;;6.82;;
59649;SDS011;46162;57.568;25.814;2022-12-15T04:06:32;13.07;;;6.28;;
59649;SDS011;46162;57.568;25.814;2022-12-15T04:09:03;11.25;;;6.43;;
59649;SDS011;46162;57.568;25.814;2022-12-15T04:11:32;14.23;;;6.20;;
59649;SDS011;46162;57.568;25.814;2022-12-15T04:14:01;13.80;;;6.35;;
59649;SDS011;46162;57.568;25.814;2022-12-15T04:16:30;11.70;;;5.97;;
59649;SDS011;46162;57.568;25.814;2022-12-15T04:18:59;11.38;;;6.47;;
59649;SDS011;46162;57.568;25.814;2022-12-15T04:21:45;9.90;;;5.97;;
59649;SDS011;46162;57.568;25.814;2022-12-15T04:24:16;10.65;;;6.28;;
59649;SDS011;46162;57.568;25.814;2022-12-15T04:27:02;12.13;;;5.70;;
59649;SDS011;46162;57.568;25.814;2022-12-15T04:29:48;11.52;;;5.70;;
59649;SDS011;46162;57.568;25.814;2022-12-15T04:32:34;12.82;;;6.15;;
59649;SDS011;46162;57.568;25.814;2022-12-15T04:35:21;11.77;;;5.97;;
59649;SDS011;46162;57.568;25.814;2022-12-15T04:38:07;12.57;;;6.15;;
59649;SDS011;46162;57.568;25.814;2022-12-15T04:40:54;11.02;;;6.03;;
59649;SDS011;46162;57.568;25.814;2022-12-15T04:43:41;13.88;;;6.65;;
59649;SDS011;46162;57.568;25.814;2022-12-15T04:46:27;12.18;;;6.07;;
59649;SDS011;46162;57.568;25.814;2022-12-15T04:49:13;15.48;;;8.38;;
59649;SDS011;46162;57.568;25.814;2022-12-15T04:51:59;12.57;;;6.95;;
59649;SDS011;46162;57.568;25.814;2022-12-15T04:54:45;14.18;;;7.30;;
59649;SDS011;46162;57.568;25.814;2022-12-15T04:57:33;13.60;;;7.95;;
59649;SDS011;46162;57.568;25.814;2022-12-15T05:00:19;13.88;;;6.68;;
59649;SDS011;46162;57.568;25.814;2022-12-15T05:03:06;11.63;;;6.97;;
59649;SDS011;46162;57.568;25.814;2022-12-15T05:05:53;16.35;;;7.35;;
59649;SDS011;46162;57.568;25.814;2022-12-15T05:08:39;13.30;;;7.00;;
59649;SDS011;46162;57.568;25.814;2022-12-15T05:11:25;15.55;;;7.80;;
59649;SDS011;46162;57.568;25.814;2022-12-15T05:14:13;15.75;;;8.10;;
59649;SDS011;46162;57.568;25.814;2022-12-15T05:17:00;13.35;;;7.30;;
59649;SDS011;46162;57.568;25.814;2022-12-15T05:19:46;16.02;;;7.93;;
59649;SDS011;46162;57.568;25.814;2022-12-15T05:22:32;16.30;;;7.80;;
59649;SDS011;46162;57.568;25.814;2022-12-15T05:25:20;14.68;;;7.22;;
59649;SDS011;46162;57.568;25.814;2022-12-15T05:28:06;12.15;;;6.68;;
59649;SDS011;46162;57.568;25.814;2022-12-15T05:30:54;11.60;;;6.22;;
59649;SDS011;46162;57.568;25.814;2022-12-15T05:33:40;12.68;;;7.43;;
59649;SDS011;46162;57.568;25.814;2022-12-15T05:36:09;14.70;;;7.20;;
59649;SDS011;46162;57.568;25.814;2022-12-15T05:38:38;14.68;;;7.20;;
59649;SDS011;46162;57.568;25.814;2022-12-15T05:41:07;15.25;;;7.90;;
59649;SDS011;46162;57.568;25.814;2022-12-15T05:43:36;14.55;;;7.50;;
59649;SDS011;46162;57.568;25.814;2022-12-15T05:46:06;13.05;;;7.43;;
59649;SDS011;46162;57.568;25.814;2022-12-15T05:48:35;14.07;;;7.10;;
59649;SDS011;46162;57.568;25.814;2022-12-15T05:51:04;16.00;;;7.57;;
59649;SDS011;46162;57.568;25.814;2022-12-15T05:53:34;12.73;;;7.25;;
59649;SDS011;46162;57.568;25.814;2022-12-15T05:56:07;13.65;;;6.82;;
59649;SDS011;46162;57.568;25.814;2022-12-15T05:58:37;14.25;;;8.10;;
59649;SDS011;46162;57.568;25.814;2022-12-15T06:01:13;17.10;;;8.63;;
59649;SDS011;46162;57.568;25.814;2022-12-15T06:03:45;14.63;;;7.35;;
59649;SDS011;46162;57.568;25.814;2022-12-15T06:06:13;13.82;;;7.25;;
59649;SDS011;46162;57.568;25.814;2022-12-15T06:08:42;13.07;;;7.40;;
59649;SDS011;46162;57.568;25.814;2022-12-15T06:11:16;14.60;;;7.18;;
59649;SDS011;46162;57.568;25.814;2022-12-15T06:13:47;14.23;;;6.97;;
59649;SDS011;46162;57.568;25.814;2022-12-15T06:16:18;11.90;;;6.63;;
59649;SDS011;46162;57.568;25.814;2022-12-15T06:18:48;12.82;;;7.28;;
59649;SDS011;46162;57.568;25.814;2022-12-15T06:21:21;12.95;;;7.07;;
59649;SDS011;46162;57.568;25.814;2022-12-15T06:26:20;12.75;;;6.65;;
59649;SDS011;46162;57.568;25.814;2022-12-15T06:28:51;14.65;;;8.13;;
59649;SDS011;46162;57.568;25.814;2022-12-15T06:31:24;14.27;;;8.23;;
59649;SDS011;46162;57.568;25.814;2022-12-15T06:33:54;13.50;;;7.85;;
59649;SDS011;46162;57.568;25.814;2022-12-15T06:36:28;16.23;;;8.63;;
59649;SDS011;46162;57.568;25.814;2022-12-15T06:38:57;16.02;;;8.75;;
59649;SDS011;46162;57.568;25.814;2022-12-15T06:41:27;16.02;;;8.13;;
59649;SDS011;46162;57.568;25.814;2022-12-15T06:43:58;16.30;;;8.10;;
59649;SDS011;46162;57.568;25.814;2022-12-15T06:46:29;16.15;;;7.80;;
59649;SDS011;46162;57.568;25.814;2022-12-15T06:48:59;16.77;;;9.43;;
59649;SDS011;46162;57.568;25.814;2022-12-15T06:51:28;16.60;;;9.57;;
59649;SDS011;46162;57.568;25.814;2022-12-15T06:53:58;18.67;;;9.45;;
59649;SDS011;46162;57.568;25.814;2022-12-15T06:56:28;16.60;;;9.57;;
59649;SDS011;46162;57.568;25.814;2022-12-15T06:59:00;17.98;;;10.60;;
59649;SDS011;46162;57.568;25.814;2022-12-15T07:01:32;16.60;;;10.40;;
59649;SDS011;46162;57.568;25.814;2022-12-15T07:04:02;18.23;;;10.63;;
59649;SDS011;46162;57.568;25.814;2022-12-15T07:06:33;15.88;;;9.15;;
59649;SDS011;46162;57.568;25.814;2022-12-15T07:09:05;13.98;;;8.55;;
59649;SDS011;46162;57.568;25.814;2022-12-15T07:11:36;17.35;;;9.15;;
59649;SDS011;46162;57.568;25.814;2022-12-15T07:14:05;13.05;;;7.80;;
59649;SDS011;46162;57.568;25.814;2022-12-15T07:16:35;13.45;;;7.22;;
59649;SDS011;46162;57.568;25.814;2022-12-15T07:19:05;13.88;;;7.38;;
59649;SDS011;46162;57.568;25.814;2022-12-15T07:21:40;15.73;;;7.90;;
59649;SDS011;46162;57.568;25.814;2022-12-15T07:24:11;14.30;;;7.22;;
59649;SDS011;46162;57.568;25.814;2022-12-15T07:26:40;13.88;;;6.88;;
59649;SDS011;46162;57.568;25.814;2022-12-15T07:29:14;14.48;;;7.63;;
59649;SDS011;46162;57.568;25.814;2022-12-15T07:31:50;14.23;;;7.20;;
59649;SDS011;46162;57.568;25.814;2022-12-15T07:34:22;12.85;;;7.10;;
59649;SDS011;46162;57.568;25.814;2022-12-15T07:36:51;13.35;;;6.93;;
59649;SDS011;46162;57.568;25.814;2022-12-15T07:39:20;13.93;;;7.50;;
59649;SDS011;46162;57.568;25.814;2022-12-15T07:41:48;14.63;;;7.90;;
59649;SDS011;46162;57.568;25.814;2022-12-15T07:44:18;13.68;;;7.05;;
59649;SDS011;46162;57.568;25.814;2022-12-15T07:46:47;14.20;;;7.47;;
59649;SDS011;46162;57.568;25.814;2022-12-15T07:49:18;14.93;;;7.35;;
59649;SDS011;46162;57.568;25.814;2022-12-15T07:51:47;12.05;;;6.43;;
59649;SDS011;46162;57.568;25.814;2022-12-15T07:54:16;11.63;;;6.68;;
59649;SDS011;46162;57.568;25.814;2022-12-15T07:56:45;11.93;;;6.72;;
59649;SDS011;46162;57.568;25.814;2022-12-15T07:59:16;13.07;;;6.72;;
59649;SDS011;46162;57.568;25.814;2022-12-15T08:01:45;14.25;;;6.93;;
59649;SDS011;46162;57.568;25.814;2022-12-15T08:04:15;13.37;;;6.77;;
59649;SDS011;46162;57.568;25.814;2022-12-15T08:06:46;13.48;;;6.18;;
59649;SDS011;46162;57.568;25.814;2022-12-15T08:09:15;14.35;;;6.60;;
59649;SDS011;46162;57.568;25.814;2022-12-15T08:11:45;13.75;;;7.15;;
59649;SDS011;46162;57.568;25.814;2022-12-15T08:14:14;13.00;;;6.57;;
59649;SDS011;46162;57.568;25.814;2022-12-15T08:16:44;12.43;;;6.70;;
59649;SDS011;46162;57.568;25.814;2022-12-15T08:19:14;12.20;;;6.82;;
59649;SDS011;46162;57.568;25.814;2022-12-15T08:21:45;10.80;;;6.07;;
59649;SDS011;46162;57.568;25.814;2022-12-15T08:26:45;13.32;;;5.75;;
59649;SDS011;46162;57.568;25.814;2022-12-15T08:32:05;10.20;;;5.65;;
59649;SDS011;46162;57.568;25.814;2022-12-15T08:34:34;11.63;;;5.75;;
59649;SDS011;46162;57.568;25.814;2022-12-15T08:37:04;12.40;;;6.25;;
59649;SDS011;46162;57.568;25.814;2022-12-15T08:39:33;11.32;;;6.35;;
59649;SDS011;46162;57.568;25.814;2022-12-15T08:42:02;11.32;;;6.40;;
59649;SDS011;46162;57.568;25.814;2022-12-15T08:44:31;12.63;;;6.10;;
59649;SDS011;46162;57.568;25.814;2022-12-15T08:47:00;14.93;;;7.07;;
59649;SDS011;46162;57.568;25.814;2022-12-15T08:49:31;10.65;;;6.32;;
59649;SDS011;46162;57.568;25.814;2022-12-15T08:52:00;12.77;;;6.72;;
59649;SDS011;46162;57.568;25.814;2022-12-15T08:54:31;13.35;;;7.03;;
59649;SDS011;46162;57.568;25.814;2022-12-15T08:57:00;12.77;;;6.70;;
59649;SDS011;46162;57.568;25.814;2022-12-15T08:59:29;14.40;;;7.22;;
59649;SDS011;46162;57.568;25.814;2022-12-15T09:01:58;12.70;;;6.85;;
59649;SDS011;46162;57.568;25.814;2022-12-15T09:04:27;13.38;;;6.53;;
59649;SDS011;46162;57.568;25.814;2022-12-15T09:06:56;12.05;;;6.93;;
59649;SDS011;46162;57.568;25.814;2022-12-15T09:09:25;11.63;;;6.07;;
59649;SDS011;46162;57.568;25.814;2022-12-15T09:11:55;11.18;;;6.10;;
59649;SDS011;46162;57.568;25.814;2022-12-15T09:14:24;11.27;;;6.18;;
59649;SDS011;46162;57.568;25.814;2022-12-15T09:19:24;13.93;;;6.70;;
59649;SDS011;46162;57.568;25.814;2022-12-15T09:21:53;10.60;;;6.47;;
59649;SDS011;46162;57.568;25.814;2022-12-15T09:24:22;14.57;;;6.90;;
59649;SDS011;46162;57.568;25.814;2022-12-15T09:27:02;10.45;;;5.75;;
59649;SDS011;46162;57.568;25.814;2022-12-15T09:32:01;12.43;;;6.47;;
59649;SDS011;46162;57.568;25.814;2022-12-15T09:34:39;15.70;;;7.30;;
59649;SDS011;46162;57.568;25.814;2022-12-15T09:37:10;13.45;;;7.07;;
59649;SDS011;46162;57.568;25.814;2022-12-15T09:39:39;13.65;;;6.65;;
59649;SDS011;46162;57.568;25.814;2022-12-15T09:42:18;13.75;;;6.35;;
59649;SDS011;46162;57.568;25.814;2022-12-15T09:44:53;15.05;;;7.03;;
59649;SDS011;46162;57.568;25.814;2022-12-15T09:47:32;16.13;;;7.95;;
59649;SDS011;46162;57.568;25.814;2022-12-15T09:50:09;13.55;;;6.93;;
59649;SDS011;46162;57.568;25.814;2022-12-15T09:52:42;13.65;;;6.38;;
59649;SDS011;46162;57.568;25.814;2022-12-15T09:55:16;15.23;;;8.15;;
59649;SDS011;46162;57.568;25.814;2022-12-15T09:57:52;14.60;;;7.70;;
59649;SDS011;46162;57.568;25.814;2022-12-15T10:00:23;11.63;;;7.05;;
59649;SDS011;46162;57.568;25.814;2022-12-15T10:03:03;13.55;;;7.38;;
59649;SDS011;46162;57.568;25.814;2022-12-15T10:08:46;12.65;;;5.78;;
59649;SDS011;46162;57.568;25.814;2022-12-15T10:11:23;12.43;;;6.85;;
59649;SDS011;46162;57.568;25.814;2022-12-15T10:14:22;13.00;;;6.95;;
59649;SDS011;46162;57.568;25.814;2022-12-15T10:17:00;14.10;;;7.20;;
59649;SDS011;46162;57.568;25.814;2022-12-15T10:19:36;11.75;;;6.95;;
59649;SDS011;46162;57.568;25.814;2022-12-15T10:22:09;11.88;;;6.85;;
59649;SDS011;46162;57.568;25.814;2022-12-15T10:24:40;14.70;;;6.50;;
59649;SDS011;46162;57.568;25.814;2022-12-15T10:27:35;14.00;;;6.60;;
59649;SDS011;46162;57.568;25.814;2022-12-15T10:30:25;12.40;;;6.43;;
59649;SDS011;46162;57.568;25.814;2022-12-15T10:32:56;13.23;;;6.70;;
59649;SDS011;46162;57.568;25.814;2022-12-15T10:35:30;15.13;;;7.25;;
59649;SDS011;46162;57.568;25.814;2022-12-15T10:38:01;10.95;;;6.13;;
59649;SDS011;46162;57.568;25.814;2022-12-15T10:43:35;12.70;;;5.72;;
59649;SDS011;46162;57.568;25.814;2022-12-15T10:46:11;13.18;;;6.72;;
59649;SDS011;46162;57.568;25.814;2022-12-15T10:48:45;12.38;;;6.82;;
59649;SDS011;46162;57.568;25.814;2022-12-15T10:51:16;15.13;;;7.20;;
59649;SDS011;46162;57.568;25.814;2022-12-15T10:53:48;12.38;;;6.65;;
59649;SDS011;46162;57.568;25.814;2022-12-15T10:56:21;11.32;;;5.85;;
59649;SDS011;46162;57.568;25.814;2022-12-15T10:59:00;16.17;;;6.78;;
59649;SDS011;46162;57.568;25.814;2022-12-15T11:01:34;14.00;;;7.55;;
59649;SDS011;46162;57.568;25.814;2022-12-15T11:04:11;13.15;;;7.00;;
59649;SDS011;46162;57.568;25.814;2022-12-15T11:06:55;13.52;;;7.05;;
59649;SDS011;46162;57.568;25.814;2022-12-15T11:09:26;14.10;;;7.13;;
59649;SDS011;46162;57.568;25.814;2022-12-15T11:12:00;12.82;;;7.22;;
59649;SDS011;46162;57.568;25.814;2022-12-15T11:17:35;15.43;;;7.35;;
59649;SDS011;46162;57.568;25.814;2022-12-15T11:20:11;16.50;;;8.20;;
59649;SDS011;46162;57.568;25.814;2022-12-15T11:22:49;15.07;;;7.82;;
59649;SDS011;46162;57.568;25.814;2022-12-15T11:25:27;16.40;;;8.40;;
59649;SDS011;46162;57.568;25.814;2022-12-15T11:28:03;16.20;;;7.30;;
59649;SDS011;46162;57.568;25.814;2022-12-15T11:30:41;14.63;;;6.80;;
59649;SDS011;46162;57.568;25.814;2022-12-15T11:33:16;27.42;;;12.65;;
59649;SDS011;46162;57.568;25.814;2022-12-15T11:35:49;16.02;;;8.55;;
59649;SDS011;46162;57.568;25.814;2022-12-15T11:38:39;18.50;;;9.07;;
59649;SDS011;46162;57.568;25.814;2022-12-15T11:41:16;74.28;;;28.52;;
59649;SDS011;46162;57.568;25.814;2022-12-15T11:44:01;64.20;;;24.90;;
59649;SDS011;46162;57.568;25.814;2022-12-15T11:46:42;63.03;;;24.67;;
59649;SDS011;46162;57.568;25.814;2022-12-15T11:49:26;21.60;;;9.82;;
59649;SDS011;46162;57.568;25.814;2022-12-15T11:52:09;18.65;;;8.07;;
59649;SDS011;46162;57.568;25.814;2022-12-15T11:54:44;22.95;;;10.13;;
59649;SDS011;46162;57.568;25.814;2022-12-15T11:57:38;26.92;;;11.50;;
59649;SDS011;46162;57.568;25.814;2022-12-15T12:00:20;19.00;;;9.13;;
59649;SDS011;46162;57.568;25.814;2022-12-15T12:03:11;23.77;;;9.60;;
59649;SDS011;46162;57.568;25.814;2022-12-15T12:06:04;16.55;;;7.25;;
59649;SDS011;46162;57.568;25.814;2022-12-15T12:08:56;15.07;;;7.25;;
59649;SDS011;46162;57.568;25.814;2022-12-15T12:11:44;16.73;;;6.85;;
59649;SDS011;46162;57.568;25.814;2022-12-15T12:14:21;15.20;;;7.38;;
59649;SDS011;46162;57.568;25.814;2022-12-15T12:17:00;12.73;;;6.90;;
59649;SDS011;46162;57.568;25.814;2022-12-15T12:19:34;16.30;;;8.35;;
59649;SDS011;46162;57.568;25.814;2022-12-15T12:22:23;15.63;;;8.00;;
59649;SDS011;46162;57.568;25.814;2022-12-15T12:24:56;14.50;;;6.97;;
59649;SDS011;46162;57.568;25.814;2022-12-15T12:27:32;15.43;;;7.10;;
59649;SDS011;46162;57.568;25.814;2022-12-15T12:30:10;15.52;;;7.32;;
59649;SDS011;46162;57.568;25.814;2022-12-15T12:32:43;14.00;;;6.68;;
59649;SDS011;46162;57.568;25.814;2022-12-15T12:35:21;15.30;;;7.75;;
59649;SDS011;46162;57.568;25.814;2022-12-15T12:38:01;13.95;;;6.65;;
59649;SDS011;46162;57.568;25.814;2022-12-15T12:40:35;14.00;;;6.15;;
59649;SDS011;46162;57.568;25.814;2022-12-15T12:43:25;10.80;;;6.03;;
59649;SDS011;46162;57.568;25.814;2022-12-15T12:46:00;11.10;;;5.85;;
59649;SDS011;46162;57.568;25.814;2022-12-15T12:48:36;10.48;;;5.53;;
59649;SDS011;46162;57.568;25.814;2022-12-15T12:51:10;12.35;;;5.63;;
59649;SDS011;46162;57.568;25.814;2022-12-15T12:53:48;14.38;;;6.60;;
59649;SDS011;46162;57.568;25.814;2022-12-15T12:56:33;15.40;;;8.02;;
59649;SDS011;46162;57.568;25.814;2022-12-15T13:05:32;13.85;;;5.15;;
59649;SDS011;46162;57.568;25.814;2022-12-15T13:10:58;16.05;;;9.15;;
59649;SDS011;46162;57.568;25.814;2022-12-15T13:14:12;19.42;;;9.25;;
59649;SDS011;46162;57.568;25.814;2022-12-15T13:16:54;20.88;;;10.02;;
59649;SDS011;46162;57.568;25.814;2022-12-15T13:22:47;11.65;;;5.82;;
59649;SDS011;46162;57.568;25.814;2022-12-15T13:28:23;13.75;;;5.90;;
59649;SDS011;46162;57.568;25.814;2022-12-15T13:40:15;12.00;;;5.82;;
59649;SDS011;46162;57.568;25.814;2022-12-15T13:43:05;15.25;;;6.95;;
59649;SDS011;46162;57.568;25.814;2022-12-15T13:45:44;13.93;;;5.97;;
59649;SDS011;46162;57.568;25.814;2022-12-15T13:48:19;11.98;;;5.75;;
59649;SDS011;46162;57.568;25.814;2022-12-15T13:50:57;19.20;;;7.70;;
59649;SDS011;46162;57.568;25.814;2022-12-15T13:53:36;13.98;;;6.25;;
59649;SDS011;46162;57.568;25.814;2022-12-15T13:59:19;21.02;;;7.72;;
59649;SDS011;46162;57.568;25.814;2022-12-15T14:01:57;13.15;;;5.30;;
59649;SDS011;46162;57.568;25.814;2022-12-15T14:04:28;16.30;;;6.35;;
59649;SDS011;46162;57.568;25.814;2022-12-15T14:07:00;20.88;;;7.38;;
59649;SDS011;46162;57.568;25.814;2022-12-15T14:09:41;14.43;;;6.75;;
59649;SDS011;46162;57.568;25.814;2022-12-15T14:12:11;14.98;;;7.90;;
59649;SDS011;46162;57.568;25.814;2022-12-15T14:14:44;17.08;;;7.88;;
59649;SDS011;46162;57.568;25.814;2022-12-15T14:17:17;14.20;;;6.82;;
59649;SDS011;46162;57.568;25.814;2022-12-15T14:19:47;15.40;;;6.97;;
59649;SDS011;46162;57.568;25.814;2022-12-15T14:22:20;11.15;;;5.40;;
59649;SDS011;46162;57.568;25.814;2022-12-15T14:24:58;11.18;;;4.53;;
59649;SDS011;46162;57.568;25.814;2022-12-15T14:27:30;13.27;;;5.90;;
59649;SDS011;46162;57.568;25.814;2022-12-15T14:32:51;11.90;;;5.00;;
59649;SDS011;46162;57.568;25.814;2022-12-15T14:35:28;10.70;;;4.82;;
59649;SDS011;46162;57.568;25.814;2022-12-15T14:38:00;8.93;;;4.57;;
59649;SDS011;46162;57.568;25.814;2022-12-15T14:40:30;13.20;;;5.22;;
59649;SDS011;46162;57.568;25.814;2022-12-15T14:43:03;11.07;;;5.65;;
59649;SDS011;46162;57.568;25.814;2022-12-15T14:45:34;11.30;;;5.55;;
59649;SDS011;46162;57.568;25.814;2022-12-15T14:48:07;11.48;;;5.55;;
59649;SDS011;46162;57.568;25.814;2022-12-15T14:50:57;19.42;;;9.32;;
59649;SDS011;46162;57.568;25.814;2022-12-15T14:53:29;14.88;;;6.25;;
59649;SDS011;46162;57.568;25.814;2022-12-15T14:56:18;12.27;;;5.80;;
59649;SDS011;46162;57.568;25.814;2022-12-15T14:59:16;15.20;;;6.32;;
59649;SDS011;46162;57.568;25.814;2022-12-15T15:01:49;13.35;;;5.45;;
59649;SDS011;46162;57.568;25.814;2022-12-15T15:04:28;6.95;;;2.72;;
59649;SDS011;46162;57.568;25.814;2022-12-15T15:07:00;10.07;;;3.67;;
59649;SDS011;46162;57.568;25.814;2022-12-15T15:09:32;9.20;;;4.13;;
59649;SDS011;46162;57.568;25.814;2022-12-15T15:12:06;12.80;;;5.53;;
59649;SDS011;46162;57.568;25.814;2022-12-15T15:14:41;13.10;;;5.90;;
59649;SDS011;46162;57.568;25.814;2022-12-15T15:17:16;10.15;;;4.30;;
59649;SDS011;46162;57.568;25.814;2022-12-15T15:19:53;8.67;;;3.10;;
59649;SDS011;46162;57.568;25.814;2022-12-15T15:22:26;9.23;;;4.53;;
59649;SDS011;46162;57.568;25.814;2022-12-15T15:25:02;12.18;;;5.45;;
59649;SDS011;46162;57.568;25.814;2022-12-15T15:30:38;12.27;;;5.07;;
59649;SDS011;46162;57.568;25.814;2022-12-15T15:33:09;11.60;;;4.47;;
59649;SDS011;46162;57.568;25.814;2022-12-15T15:35:40;11.75;;;5.25;;
59649;SDS011;46162;57.568;25.814;2022-12-15T15:38:12;10.13;;;3.97;;
59649;SDS011;46162;57.568;25.814;2022-12-15T15:40:51;7.95;;;3.53;;
59649;SDS011;46162;57.568;25.814;2022-12-15T15:43:22;10.18;;;4.07;;
59649;SDS011;46162;57.568;25.814;2022-12-15T15:45:53;12.40;;;4.95;;
59649;SDS011;46162;57.568;25.814;2022-12-15T15:48:28;11.98;;;4.78;;
59649;SDS011;46162;57.568;25.814;2022-12-15T15:51:02;11.60;;;4.35;;
59649;SDS011;46162;57.568;25.814;2022-12-15T15:53:32;8.05;;;3.45;;
59649;SDS011;46162;57.568;25.814;2022-12-15T15:56:02;11.68;;;4.82;;
59649;SDS011;46162;57.568;25.814;2022-12-15T15:58:33;12.13;;;4.88;;
59649;SDS011;46162;57.568;25.814;2022-12-15T16:01:02;10.13;;;4.60;;
59649;SDS011;46162;57.568;25.814;2022-12-15T16:03:38;9.60;;;4.22;;
59649;SDS011;46162;57.568;25.814;2022-12-15T16:06:13;9.98;;;3.50;;
59649;SDS011;46162;57.568;25.814;2022-12-15T16:08:44;8.88;;;3.53;;
59649;SDS011;46162;57.568;25.814;2022-12-15T16:13:44;7.63;;;2.92;;
59649;SDS011;46162;57.568;25.814;2022-12-15T16:16:13;10.35;;;3.83;;
59649;SDS011;46162;57.568;25.814;2022-12-15T16:18:45;15.35;;;3.83;;
59649;SDS011;46162;57.568;25.814;2022-12-15T16:21:16;10.15;;;3.88;;
59649;SDS011;46162;57.568;25.814;2022-12-15T16:23:46;10.23;;;4.43;;